createdAt,value
2022-11-23T00:01:23.231Z,100.00
2022-11-23T00:03:53.482Z,100.00
2022-11-23T00:06:24.155Z,100.00
2022-11-23T00:08:51.539Z,100.00
2022-11-23T00:11:19.758Z,100.00
2022-11-23T00:13:47.305Z,100.00
2022-11-23T00:16:22.319Z,100.00
2022-11-23T00:18:51.316Z,100.00
2022-11-23T00:21:20.287Z,100.00
2022-11-23T00:23:47.098Z,100.00
2022-11-23T00:26:14.423Z,100.00
2022-11-23T00:28:42.210Z,100.00
2022-11-23T00:31:11.281Z,100.00
2022-11-23T00:33:38.129Z,100.00
2022-11-23T00:36:13.424Z,100.00
2022-11-23T00:38:41.557Z,100.00
2022-11-23T00:41:11.672Z,100.00
2022-11-23T00:43:38.490Z,100.00
2022-11-23T00:46:21.448Z,100.00
2022-11-23T00:48:50.193Z,100.00
2022-11-23T00:51:21.254Z,100.00
2022-11-23T00:53:50.243Z,100.00
2022-11-23T00:56:18.209Z,100.00
2022-11-23T00:58:49.850Z,100.00
2022-11-23T01:01:18.791Z,100.00
2022-11-23T01:03:48.459Z,100.00
2022-11-23T01:06:18.432Z,100.00
2022-11-23T01:08:50.577Z,100.00
2022-11-23T01:11:17.571Z,100.00
2022-11-23T01:13:44.386Z,100.00
2022-11-23T01:16:23.862Z,100.00
2022-11-23T01:19:00.028Z,100.00
2022-11-23T01:21:29.141Z,100.00
2022-11-23T01:23:56.101Z,100.00
2022-11-23T01:26:23.482Z,100.00
2022-11-23T01:28:50.824Z,100.00
2022-11-23T01:31:26.718Z,100.00
2022-11-23T01:33:55.491Z,100.00
2022-11-23T01:36:25.600Z,100.00
2022-11-23T01:38:52.649Z,100.00
2022-11-23T01:41:22.226Z,100.00
2022-11-23T01:43:49.942Z,100.00
2022-11-23T01:46:17.415Z,100.00
2022-11-23T01:48:58.032Z,100.00
2022-11-23T01:51:41.071Z,100.00
2022-11-23T01:54:16.380Z,100.00
2022-11-23T01:56:47.961Z,100.00
2022-11-23T01:59:16.888Z,100.00
2022-11-23T02:01:44.207Z,100.00
2022-11-23T02:04:22.340Z,100.00
2022-11-23T02:06:49.517Z,100.00
2022-11-23T02:09:17.505Z,100.00
2022-11-23T02:11:44.745Z,100.00
2022-11-23T02:14:12.279Z,100.00
2022-11-23T02:16:39.318Z,100.00
2022-11-23T02:19:12.745Z,100.00
2022-11-23T02:21:42.234Z,100.00
2022-11-23T02:24:22.868Z,100.00
2022-11-23T02:26:49.949Z,100.00
2022-11-23T02:29:27.428Z,100.00
2022-11-23T02:31:54.546Z,100.00
2022-11-23T02:34:21.406Z,100.00
2022-11-23T02:36:50.078Z,100.00
2022-11-23T02:39:36.863Z,100.00
2022-11-23T02:42:05.159Z,100.00
2022-11-23T02:44:51.596Z,100.00
2022-11-23T02:47:18.422Z,100.00
2022-11-23T02:49:49.419Z,100.00
2022-11-23T02:52:17.457Z,100.00
2022-11-23T02:54:44.300Z,100.00
2022-11-23T02:57:11.092Z,100.00
2022-11-23T02:59:37.934Z,100.00
2022-11-23T03:02:05.450Z,100.00
2022-11-23T03:04:32.232Z,100.00
2022-11-23T03:06:59.348Z,100.00
2022-11-23T03:09:26.335Z,100.00
2022-11-23T03:11:54.080Z,100.00
2022-11-23T03:14:21.173Z,100.00
2022-11-23T03:16:47.963Z,100.00
2022-11-23T03:19:15.490Z,100.00
2022-11-23T03:21:42.348Z,100.00
2022-11-23T03:24:09.131Z,100.00
2022-11-23T03:26:35.937Z,100.00
2022-11-23T03:29:02.831Z,100.00
2022-11-23T03:31:29.553Z,100.00
2022-11-23T03:33:56.340Z,100.00
2022-11-23T03:36:23.082Z,100.00
2022-11-23T03:38:49.817Z,100.00
2022-11-23T03:41:16.524Z,100.00
2022-11-23T03:43:43.293Z,100.00
2022-11-23T03:46:10.036Z,100.00
2022-11-23T03:48:36.857Z,100.00
2022-11-23T03:51:03.600Z,100.00
2022-11-23T03:53:30.373Z,100.00
2022-11-23T03:55:58.119Z,100.00
2022-11-23T03:58:24.935Z,100.00
2022-11-23T04:00:51.795Z,100.00
2022-11-23T04:03:18.609Z,100.00
2022-11-23T04:05:45.314Z,100.00
2022-11-23T04:08:12.247Z,100.00
2022-11-23T04:10:39.009Z,100.00
2022-11-23T04:13:05.827Z,100.00
2022-11-23T04:15:32.701Z,100.00
2022-11-23T04:17:59.575Z,100.00
2022-11-23T04:20:26.530Z,100.00
2022-11-23T04:22:53.616Z,100.00
2022-11-23T04:25:20.353Z,100.00
2022-11-23T04:27:47.139Z,100.00
2022-11-23T04:30:14.574Z,100.00
2022-11-23T04:32:45.080Z,100.00
2022-11-23T04:35:12.127Z,100.00
2022-11-23T04:37:39.041Z,100.00
2022-11-23T04:40:06.785Z,100.00
2022-11-23T04:42:33.583Z,100.00
2022-11-23T04:45:00.320Z,100.00
2022-11-23T04:47:27.045Z,100.00
2022-11-23T04:49:53.764Z,100.00
2022-11-23T04:52:20.522Z,100.00
2022-11-23T04:54:47.238Z,100.00
2022-11-23T04:57:14.005Z,100.00
2022-11-23T04:59:40.964Z,100.00
2022-11-23T05:02:07.943Z,100.00
2022-11-23T05:04:35.185Z,100.00
2022-11-23T05:07:01.957Z,100.00
2022-11-23T05:09:28.627Z,100.00
2022-11-23T05:11:55.318Z,100.00
2022-11-23T05:14:22.066Z,100.00
2022-11-23T05:16:48.795Z,100.00
2022-11-23T05:19:15.564Z,100.00
2022-11-23T05:21:42.336Z,100.00
2022-11-23T05:24:09.263Z,100.00
2022-11-23T05:26:36.057Z,100.00
2022-11-23T05:29:02.968Z,100.00
2022-11-23T05:31:29.683Z,100.00
2022-11-23T05:33:56.499Z,100.00
2022-11-23T05:36:26.567Z,100.00
2022-11-23T05:38:53.837Z,100.00
2022-11-23T05:41:20.596Z,100.00
2022-11-23T05:43:47.340Z,100.00
2022-11-23T05:46:14.464Z,100.00
2022-11-23T05:48:41.162Z,100.00
2022-11-23T05:51:07.969Z,100.00
2022-11-23T05:53:35.097Z,100.00
2022-11-23T05:56:03.034Z,100.00
2022-11-23T05:58:30.378Z,100.00
2022-11-23T06:01:01.117Z,100.00
2022-11-23T06:03:28.052Z,100.00
2022-11-23T06:05:55.951Z,100.00
2022-11-23T06:08:22.718Z,100.00
2022-11-23T06:10:49.440Z,100.00
2022-11-23T06:13:16.158Z,100.00
2022-11-23T06:15:43.017Z,100.00
2022-11-23T06:18:10.537Z,100.00
2022-11-23T06:20:37.362Z,100.00
2022-11-23T06:23:04.167Z,100.00
2022-11-23T06:25:31.622Z,100.00
2022-11-23T06:28:01.553Z,100.00
2022-11-23T06:30:30.059Z,100.00
2022-11-23T06:32:57.643Z,100.00
2022-11-23T06:35:24.702Z,100.00
2022-11-23T06:37:54.540Z,100.00
2022-11-23T06:40:22.660Z,100.00
2022-11-23T06:42:49.489Z,100.00
2022-11-23T06:45:16.447Z,100.00
2022-11-23T06:47:43.846Z,100.00
2022-11-23T06:50:10.598Z,100.00
2022-11-23T06:52:37.304Z,100.00
2022-11-23T06:55:04.258Z,100.00
2022-11-23T06:57:30.950Z,100.00
2022-11-23T06:59:57.777Z,100.00
2022-11-23T07:02:24.451Z,100.00
2022-11-23T07:04:53.024Z,100.00
2022-11-23T07:07:19.932Z,100.00
2022-11-23T07:09:48.187Z,100.00
2022-11-23T07:12:14.987Z,100.00
2022-11-23T07:14:41.692Z,100.00
2022-11-23T07:17:08.439Z,100.00
2022-11-23T07:19:35.331Z,100.00
2022-11-23T07:22:02.212Z,100.00
2022-11-23T07:24:31.765Z,100.00
2022-11-23T07:27:03.180Z,100.00
2022-11-23T07:29:30.441Z,100.00
2022-11-23T07:31:57.357Z,100.00
2022-11-23T07:34:24.103Z,100.00
2022-11-23T07:36:50.812Z,100.00
2022-11-23T07:39:17.474Z,100.00
2022-11-23T07:41:44.251Z,100.00
2022-11-23T07:44:11.108Z,100.00
2022-11-23T07:46:37.841Z,100.00
2022-11-23T07:49:04.690Z,100.00
2022-11-23T07:51:31.540Z,100.00
2022-11-23T07:53:58.217Z,100.00
2022-11-23T07:56:25.347Z,100.00
2022-11-23T07:58:52.146Z,100.00
2022-11-23T08:01:19.564Z,100.00
2022-11-23T08:03:46.533Z,100.00
2022-11-23T08:06:14.079Z,100.00
2022-11-23T08:08:42.004Z,100.00
2022-11-23T08:11:09.644Z,100.00
2022-11-23T08:13:37.267Z,100.00
2022-11-23T08:16:07.038Z,100.00
2022-11-23T08:18:33.769Z,100.00
2022-11-23T08:21:00.976Z,100.00
2022-11-23T08:23:28.040Z,100.00
2022-11-23T08:25:54.761Z,100.00
2022-11-23T08:28:21.968Z,100.00
2022-11-23T08:30:49.253Z,100.00
2022-11-23T08:33:16.224Z,100.00
2022-11-23T08:35:42.958Z,100.00
2022-11-23T08:38:10.230Z,100.00
2022-11-23T08:40:37.805Z,100.00
2022-11-23T08:43:05.567Z,100.00
2022-11-23T08:45:32.305Z,100.00
2022-11-23T08:48:00.847Z,100.00
2022-11-23T08:50:29.345Z,100.00
2022-11-23T08:52:57.684Z,100.00
2022-11-23T08:55:25.852Z,100.00
2022-11-23T08:57:59.148Z,100.00
2022-11-23T09:00:26.972Z,99.23
2022-11-23T09:02:54.754Z,97.13
2022-11-23T09:05:21.874Z,97.04
2022-11-23T09:07:48.711Z,98.39
2022-11-23T09:10:18.875Z,96.78
2022-11-23T09:12:47.269Z,96.21
2022-11-23T09:15:14.927Z,96.78
2022-11-23T09:17:41.887Z,94.83
2022-11-23T09:20:10.217Z,94.00
2022-11-23T09:22:37.384Z,92.80
2022-11-23T09:25:04.874Z,90.36
2022-11-23T09:27:31.711Z,90.76
2022-11-23T09:29:58.501Z,90.80
2022-11-23T09:32:25.275Z,89.38
2022-11-23T09:34:52.038Z,89.15
2022-11-23T09:37:18.717Z,88.97
2022-11-23T09:39:45.448Z,88.24
2022-11-23T09:42:41.095Z,86.54
2022-11-23T09:45:20.106Z,85.69
2022-11-23T09:48:04.443Z,86.09
2022-11-23T09:50:56.560Z,85.51
2022-11-23T09:53:42.394Z,85.48
2022-11-23T09:56:27.483Z,81.99
2022-11-23T09:58:57.498Z,81.92
2022-11-23T10:01:25.544Z,81.94
2022-11-23T10:03:52.367Z,80.89
2022-11-23T10:06:31.294Z,80.73
2022-11-23T10:09:04.762Z,80.54
2022-11-23T10:12:12.823Z,77.94
2022-11-23T10:14:58.312Z,78.96
2022-11-23T10:17:31.872Z,76.91
2022-11-23T10:20:11.526Z,76.19
2022-11-23T10:22:56.835Z,75.12
2022-11-23T10:25:24.853Z,75.58
2022-11-23T10:27:57.528Z,75.81
2022-11-23T10:30:24.338Z,75.85
2022-11-23T10:33:02.830Z,76.92
2022-11-23T10:35:35.025Z,77.05
2022-11-23T10:38:19.197Z,73.51
2022-11-23T10:41:08.616Z,74.68
2022-11-23T10:43:39.661Z,73.90
2022-11-23T10:46:24.782Z,71.44
2022-11-23T10:48:52.654Z,71.58
2022-11-23T10:51:32.868Z,70.42
2022-11-23T10:54:17.825Z,71.70
2022-11-23T10:56:49.565Z,69.81
2022-11-23T10:59:33.289Z,69.56
2022-11-23T11:02:19.799Z,70.11
2022-11-23T11:04:48.128Z,71.22
2022-11-23T11:07:36.953Z,69.56
2022-11-23T11:10:05.770Z,66.54
2022-11-23T11:12:34.463Z,64.61
2022-11-23T11:15:11.993Z,63.75
2022-11-23T11:17:41.695Z,63.56
2022-11-23T11:20:27.241Z,62.23
2022-11-23T11:23:16.628Z,63.39
2022-11-23T11:25:43.871Z,62.01
2022-11-23T11:28:33.502Z,59.51
2022-11-23T11:31:15.522Z,58.81
2022-11-23T11:33:51.161Z,60.36
2022-11-23T11:36:18.308Z,58.57
2022-11-23T11:39:17.144Z,58.62
2022-11-23T11:41:42.823Z,56.94
2022-11-23T11:44:19.138Z,57.76
2022-11-23T11:46:54.289Z,57.84
2022-11-23T11:49:34.075Z,58.23
2022-11-23T11:52:13.691Z,57.32
2022-11-23T11:54:52.033Z,57.52
2022-11-23T11:57:24.153Z,57.27
2022-11-23T11:59:57.565Z,57.62
2022-11-23T12:02:27.019Z,57.55
2022-11-23T12:05:09.211Z,56.55
2022-11-23T12:07:39.072Z,56.05
2022-11-23T12:10:17.345Z,57.21
2022-11-23T12:12:44.541Z,57.62
2022-11-23T12:15:49.341Z,57.99
2022-11-23T12:18:45.806Z,58.85
2022-11-23T12:21:41.182Z,59.14
2022-11-23T12:24:29.582Z,59.03
2022-11-23T12:27:14.902Z,61.12
2022-11-23T12:30:03.929Z,58.98
2022-11-23T12:32:45.388Z,60.96
2022-11-23T12:35:42.251Z,62.47
2022-11-23T12:38:35.917Z,62.47
2022-11-23T12:41:23.540Z,62.23
2022-11-23T12:44:08.129Z,63.01
2022-11-23T12:46:46.064Z,63.72
2022-11-23T12:49:44.379Z,63.81
2022-11-23T12:52:45.606Z,64.03
2022-11-23T12:55:24.091Z,65.12
2022-11-23T12:58:23.378Z,64.71
2022-11-23T13:00:56.125Z,65.12
2022-11-23T13:03:40.205Z,66.08
2022-11-23T13:07:26.268Z,65.95
2022-11-23T13:09:55.232Z,66.44
2022-11-23T13:12:53.291Z,66.52
2022-11-23T13:15:46.975Z,67.03
2022-11-23T13:18:16.983Z,67.35
2022-11-23T13:21:01.748Z,67.05
2022-11-23T13:23:28.562Z,67.25
2022-11-23T13:26:15.781Z,67.18
2022-11-23T13:28:43.944Z,67.25
2022-11-23T13:31:16.949Z,67.63
2022-11-23T13:33:49.467Z,66.80
2022-11-23T13:37:10.475Z,67.37
2022-11-23T13:40:00.453Z,67.47
2022-11-23T13:42:32.748Z,67.66
2022-11-23T13:45:21.470Z,68.06
2022-11-23T13:48:06.648Z,67.35
2022-11-23T13:50:34.031Z,67.32
2022-11-23T13:53:01.555Z,67.22
2022-11-23T13:55:37.790Z,67.54
2022-11-23T13:58:26.636Z,67.70
2022-11-23T14:00:56.071Z,68.15
2022-11-23T14:03:44.765Z,68.00
2022-11-23T14:06:47.804Z,68.48
2022-11-23T14:09:35.125Z,68.37
2022-11-23T14:12:11.354Z,68.34
2022-11-23T14:14:53.886Z,68.39
2022-11-23T14:17:52.185Z,68.61
2022-11-23T14:20:42.369Z,68.52
2022-11-23T14:23:34.307Z,68.53
2022-11-23T14:26:19.274Z,68.79
2022-11-23T14:29:18.211Z,68.89
2022-11-23T14:32:19.300Z,67.95
2022-11-23T14:34:55.047Z,68.38
2022-11-23T14:37:59.747Z,68.82
2022-11-23T14:41:04.106Z,69.12
2022-11-23T14:43:33.091Z,69.25
2022-11-23T14:46:07.241Z,69.19
2022-11-23T14:48:36.052Z,69.51
2022-11-23T14:51:06.475Z,69.49
2022-11-23T14:53:43.943Z,70.08
2022-11-23T14:56:22.409Z,70.62
2022-11-23T14:58:50.152Z,71.47
2022-11-23T15:01:22.736Z,72.48
2022-11-23T15:04:23.963Z,73.05
2022-11-23T15:06:54.598Z,73.17
2022-11-23T15:09:50.025Z,74.50
2022-11-23T15:12:28.909Z,74.91
2022-11-23T15:14:59.977Z,75.12
2022-11-23T15:17:27.538Z,75.33
2022-11-23T15:19:57.020Z,76.11
2022-11-23T15:22:24.657Z,76.03
2022-11-23T15:24:52.072Z,76.78
2022-11-23T15:27:29.950Z,76.80
2022-11-23T15:30:03.311Z,77.39
2022-11-23T15:32:34.763Z,76.85
2022-11-23T15:35:07.336Z,77.36
2022-11-23T15:37:49.126Z,77.32
2022-11-23T15:40:18.397Z,77.92
2022-11-23T15:42:48.668Z,78.59
2022-11-23T15:45:34.981Z,80.47
2022-11-23T15:48:20.319Z,80.11
2022-11-23T15:50:48.616Z,80.27
2022-11-23T15:53:15.416Z,80.83
2022-11-23T15:55:43.132Z,80.19
2022-11-23T15:58:15.298Z,79.98
2022-11-23T16:00:49.762Z,80.10
2022-11-23T16:03:33.900Z,80.90
2022-11-23T16:06:18.393Z,82.03
2022-11-23T16:08:45.174Z,82.56
2022-11-23T16:11:32.496Z,81.97
2022-11-23T16:14:14.736Z,80.14
2022-11-23T16:16:45.768Z,79.61
2022-11-23T16:19:24.498Z,78.95
2022-11-23T16:21:59.219Z,78.83
2022-11-23T16:24:30.832Z,78.38
2022-11-23T16:26:58.875Z,79.13
2022-11-23T16:29:36.616Z,80.10
2022-11-23T16:32:07.274Z,80.02
2022-11-23T16:34:35.290Z,80.72
2022-11-23T16:37:03.924Z,80.86
2022-11-23T16:39:30.738Z,82.71
2022-11-23T16:41:57.921Z,84.51
2022-11-23T16:44:24.874Z,84.82
2022-11-23T16:46:51.722Z,86.74
2022-11-23T16:49:21.677Z,89.65
2022-11-23T16:51:56.412Z,92.07
2022-11-23T16:54:25.300Z,94.44
2022-11-23T16:56:53.159Z,94.43
2022-11-23T16:59:22.214Z,95.59
2022-11-23T17:01:57.055Z,97.16
2022-11-23T17:04:25.173Z,96.89
2022-11-23T17:06:51.951Z,98.48
2022-11-23T17:09:18.792Z,99.88
2022-11-23T17:11:48.309Z,100.00
2022-11-23T17:14:18.889Z,100.00
2022-11-23T17:17:02.255Z,100.00
2022-11-23T17:19:30.690Z,100.00
2022-11-23T17:21:57.913Z,100.00
2022-11-23T17:24:24.740Z,100.00
2022-11-23T17:26:53.815Z,100.00
2022-11-23T17:29:21.573Z,100.00
2022-11-23T17:31:50.241Z,100.00
2022-11-23T17:34:17.869Z,100.00
2022-11-23T17:36:46.578Z,100.00
2022-11-23T17:39:26.179Z,100.00
2022-11-23T17:41:53.331Z,100.00
2022-11-23T17:44:20.756Z,100.00
2022-11-23T17:46:47.902Z,100.00
2022-11-23T17:49:17.926Z,100.00
2022-11-23T17:51:45.565Z,100.00
2022-11-23T17:54:12.689Z,100.00
2022-11-23T17:56:39.426Z,100.00
2022-11-23T17:59:09.026Z,100.00
2022-11-23T18:01:36.399Z,100.00
2022-11-23T18:04:05.130Z,100.00
2022-11-23T18:06:32.306Z,100.00
2022-11-23T18:08:59.042Z,100.00
2022-11-23T18:11:25.860Z,100.00
2022-11-23T18:13:55.062Z,100.00
2022-11-23T18:16:23.608Z,100.00
2022-11-23T18:18:50.996Z,100.00
2022-11-23T18:21:18.613Z,100.00
2022-11-23T18:23:45.446Z,100.00
2022-11-23T18:26:25.532Z,100.00
2022-11-23T18:28:54.315Z,100.00
2022-11-23T18:31:22.008Z,100.00
2022-11-23T18:33:48.887Z,100.00
2022-11-23T18:36:16.180Z,100.00
2022-11-23T18:38:47.276Z,100.00
2022-11-23T18:41:17.233Z,100.00
2022-11-23T18:43:45.369Z,100.00
2022-11-23T18:46:18.843Z,100.00
2022-11-23T18:48:47.744Z,100.00
2022-11-23T18:51:16.840Z,100.00
2022-11-23T18:53:48.249Z,100.00
2022-11-23T18:56:15.056Z,100.00
2022-11-23T18:58:43.593Z,100.00
2022-11-23T19:01:19.592Z,100.00
2022-11-23T19:03:48.584Z,100.00
2022-11-23T19:06:17.099Z,100.00
2022-11-23T19:08:46.467Z,100.00
2022-11-23T19:11:19.206Z,100.00
2022-11-23T19:13:49.183Z,100.00
2022-11-23T19:16:25.155Z,100.00
2022-11-23T19:19:01.560Z,100.00
2022-11-23T19:21:31.345Z,100.00
2022-11-23T19:24:00.152Z,100.00
2022-11-23T19:26:28.086Z,100.00
2022-11-23T19:28:58.108Z,100.00
2022-11-23T19:31:27.334Z,100.00
2022-11-23T19:33:58.401Z,100.00
2022-11-23T19:36:25.773Z,100.00
2022-11-23T19:38:52.574Z,100.00
2022-11-23T19:41:22.942Z,100.00
2022-11-23T19:43:53.789Z,100.00
2022-11-23T19:46:22.714Z,100.00
2022-11-23T19:48:49.955Z,100.00
2022-11-23T19:51:19.064Z,100.00
2022-11-23T19:53:50.687Z,100.00
2022-11-23T19:56:20.313Z,100.00
2022-11-23T19:58:51.104Z,100.00
2022-11-23T20:01:20.147Z,100.00
2022-11-23T20:03:50.878Z,100.00
2022-11-23T20:06:24.973Z,100.00
2022-11-23T20:08:56.708Z,100.00
2022-11-23T20:11:24.895Z,100.00
2022-11-23T20:13:55.484Z,100.00
2022-11-23T20:16:26.107Z,100.00
2022-11-23T20:19:16.197Z,100.00
2022-11-23T20:21:43.022Z,100.00
2022-11-23T20:24:12.846Z,100.00
2022-11-23T20:26:41.110Z,100.00
2022-11-23T20:29:08.800Z,100.00
2022-11-23T20:31:36.460Z,100.00
2022-11-23T20:34:07.109Z,100.00
2022-11-23T20:36:37.591Z,100.00
2022-11-23T20:39:07.227Z,100.00
2022-11-23T20:41:36.660Z,100.00
2022-11-23T20:44:13.327Z,100.00
2022-11-23T20:49:27.526Z,100.00
2022-11-23T20:51:54.359Z,100.00
2022-11-23T20:54:21.216Z,100.00
2022-11-23T20:56:47.970Z,100.00
2022-11-23T20:59:14.780Z,100.00
2022-11-23T21:01:41.643Z,100.00
2022-11-23T21:04:09.059Z,100.00
2022-11-23T21:06:39.558Z,100.00
2022-11-23T21:09:08.747Z,100.00
2022-11-23T21:11:54.371Z,100.00
2022-11-23T21:14:24.666Z,100.00
2022-11-23T21:16:57.000Z,100.00
2022-11-23T21:19:33.299Z,100.00
2022-11-23T21:22:07.383Z,100.00
2022-11-23T21:24:35.560Z,100.00
2022-11-23T21:27:08.011Z,100.00
2022-11-23T21:29:34.916Z,100.00
2022-11-23T21:32:01.670Z,100.00
2022-11-23T21:34:30.378Z,100.00
2022-11-23T21:36:58.741Z,100.00
2022-11-23T21:39:25.764Z,100.00
2022-11-23T21:41:53.835Z,100.00
2022-11-23T21:44:22.714Z,100.00
2022-11-23T21:46:49.877Z,100.00
2022-11-23T21:49:16.841Z,100.00
2022-11-23T21:51:44.589Z,100.00
2022-11-23T21:54:15.249Z,100.00
2022-11-23T21:56:43.711Z,100.00
2022-11-23T21:59:10.941Z,100.00
2022-11-23T22:01:38.818Z,100.00
2022-11-23T22:04:09.774Z,100.00
2022-11-23T22:06:37.941Z,100.00
2022-11-23T22:09:07.444Z,100.00
2022-11-23T22:11:35.746Z,100.00
2022-11-23T22:14:05.161Z,100.00
2022-11-23T22:16:37.533Z,100.00
2022-11-23T22:19:06.068Z,100.00
2022-11-23T22:21:35.460Z,100.00
2022-11-23T22:24:02.925Z,100.00
2022-11-23T22:26:30.064Z,100.00
2022-11-23T22:28:57.261Z,100.00
2022-11-23T22:31:25.466Z,100.00
2022-11-23T22:33:53.423Z,100.00
2022-11-23T22:36:24.516Z,100.00
2022-11-23T22:39:01.581Z,100.00
2022-11-23T22:41:33.439Z,100.00
2022-11-23T22:44:00.334Z,100.00
2022-11-23T22:46:27.176Z,100.00
2022-11-23T22:48:54.416Z,100.00
2022-11-23T22:51:23.003Z,100.00
2022-11-23T22:53:58.436Z,100.00
2022-11-23T22:56:26.177Z,100.00
2022-11-23T22:58:53.537Z,100.00
2022-11-23T23:01:23.311Z,100.00
2022-11-23T23:03:55.488Z,100.00
2022-11-23T23:06:28.513Z,100.00
2022-11-23T23:08:58.192Z,100.00
2022-11-23T23:11:26.678Z,100.00
2022-11-23T23:13:53.629Z,100.00
2022-11-23T23:16:21.633Z,100.00
2022-11-23T23:18:48.550Z,100.00
2022-11-23T23:21:22.684Z,100.00
2022-11-23T23:23:51.510Z,100.00
2022-11-23T23:26:22.314Z,100.00
2022-11-23T23:28:49.393Z,100.00
2022-11-23T23:31:17.307Z,100.00
2022-11-23T23:33:45.571Z,100.00
2022-11-23T23:36:15.545Z,100.00
2022-11-23T23:38:43.234Z,100.00
2022-11-23T23:41:11.960Z,100.00
2022-11-23T23:43:39.590Z,100.00
2022-11-23T23:46:08.700Z,100.00
2022-11-23T23:48:37.296Z,100.00
2022-11-23T23:51:14.888Z,100.00
2022-11-23T23:53:42.342Z,100.00
2022-11-23T23:56:16.938Z,100.00
2022-11-23T23:58:44.287Z,100.00
